Overview Statistics Trail Chart Weather Telemetry Raw packets
 

This is the latest recevied weather packets stored in our database for station/object W7BTL. If no packets are shown the sender has not sent any weather packets the latest 10 day(s).

<< 65 66 67 68 69 70 71 >>
Time Temp. Humidity Pressure Rain* Wind** Luminosity Snow
1788199928 29.44° C 54% 1013.5 hPa 0 mm - 855 W/m² -
1788199622 28.33° C 57% 1013.3 hPa 0 mm - 834 W/m² -
1788199318 28.89° C 57% 1013.5 hPa 0 mm - 820 W/m² -
1788199017 28.89° C 56% 1013.6 hPa 0 mm - 805 W/m² -
1788198714 28.33° C 59% 1013.6 hPa 0 mm - 793 W/m² -
1788198414 27.78° C 59% 1013.5 hPa 0 mm - 794 W/m² -
1788198109 27.78° C 58% 1013.6 hPa 0 mm - 775 W/m² -
1788197808 28.33° C 59% 1013.7 hPa 0 mm - 756 W/m² -
1788197504 27.78° C 59% 1013.5 hPa 0 mm - 742 W/m² -
1788197203 27.78° C 61% 1013.7 hPa 0 mm - 726 W/m² -
1788196898 27.78° C 60% 1013.6 hPa 0 mm - 706 W/m² -
1788196593 27.78° C 60% 1013.4 hPa 0 mm - 713 W/m² -
1788196291 27.78° C 62% 1013.3 hPa 0 mm - 696 W/m² -
1788195987 27.78° C 61% 1013.5 hPa 0 mm - 663 W/m² -
1788195684 27.22° C 62% 1013.5 hPa 0 mm - 483 W/m² -
1788195379 27.22° C 63% 1013.6 hPa 0 mm - 619 W/m² -
1788195076 26.67° C 64% 1013.3 hPa 0 mm - 603 W/m² -
1788194771 26.67° C 64% 1013.4 hPa 0 mm - 564 W/m² -
1788194467 26.11° C 68% 1013.3 hPa 0 mm - 573 W/m² -
1788194161 25.56° C 71% 1013.3 hPa 0 mm - 648 W/m² -
1788193857 25.56° C 69% 1013.2 hPa 0 mm - 324 W/m² -
1788193556 26.11° C 66% 1013.5 hPa 0 mm - 216 W/m² -
1788193254 26.11° C 66% 1013.2 hPa 0 mm - 240 W/m² -
1788192950 25.56° C 68% 1013.1 hPa 0 mm - 467 W/m² -
1788192647 24.44° C 72% 1013.3 hPa 0 mm - 534 W/m² -

* Rain latest hour (hover to see other rain measurements)
** Current wind speed in m/s (hover to see current wind gust speed)